Time;durP1;ratioP1;P1;durP2;ratioP2;P2;SDS_P1;SDS_P2;PMS_P1;PMS_P2;Temp;Humidity;BMP_temperature;BMP_pressure;BME280_temperature;BME280_humidity;BME280_pressure;Samples;Min_cycle;Max_cycle;Signal;HPM_P1;HPM_P2
2022/10/19 00:01:47;;;;;;;31.90;16.40;;;;;;;12.64;100.00;100104.00;8476518;27;20050;-84
2022/10/19 00:05:48;;;;;;;27.95;17.48;;;;;;;12.61;100.00;100107.31;8498868;27;20047;-84
2022/10/19 00:09:49;;;;;;;32.92;17.40;;;;;;;12.61;100.00;100115.44;8505157;27;20046;-83
2022/10/19 00:13:51;;;;;;;27.90;17.08;;;;;;;12.59;100.00;100117.63;8484311;27;20126;-84
2022/10/19 00:17:52;;;;;;;30.15;17.10;;;;;;;12.60;100.00;100119.25;8495626;27;20043;-83
2022/10/19 00:21:53;;;;;;;31.63;19.13;;;;;;;12.53;100.00;100125.03;8438045;28;20081;-83
2022/10/19 00:25:55;;;;;;;30.88;18.25;;;;;;;12.47;100.00;100114.59;8423064;28;20040;-84
2022/10/19 00:29:56;;;;;;;31.90;19.80;;;;;;;12.43;100.00;100119.00;8427693;28;20047;-83
2022/10/19 00:33:58;;;;;;;33.60;19.85;;;;;;;12.47;100.00;100114.59;8383963;28;20470;-82
2022/10/19 00:37:58;;;;;;;38.58;20.73;;;;;;;12.41;100.00;100110.38;8449110;28;20051;-85
2022/10/19 00:42:00;;;;;;;29.17;19.95;;;;;;;12.39;100.00;100102.53;8422828;28;20062;-84
2022/10/19 00:46:01;;;;;;;32.10;19.98;;;;;;;12.38;100.00;100108.22;8444774;28;20127;-84
2022/10/19 00:50:02;;;;;;;39.00;20.02;;;;;;;12.36;100.00;100105.84;8452603;28;20052;-85
2022/10/19 00:54:04;;;;;;;35.33;21.77;;;;;;;12.32;100.00;100112.94;8510384;27;20063;-85
2022/10/19 00:58:06;;;;;;;36.78;22.08;;;;;;;12.34;100.00;100104.50;8502149;27;20046;-85
2022/10/19 01:02:07;;;;;;;31.88;20.15;;;;;;;12.30;100.00;100107.03;8508903;27;20039;-85
2022/10/19 01:06:09;;;;;;;41.20;23.63;;;;;;;12.28;100.00;100096.47;8504875;27;20058;-85
2022/10/19 01:10:10;;;;;;;33.08;20.13;;;;;;;12.24;100.00;100103.59;8476115;27;20046;-85
2022/10/19 01:14:36;;;;;;;35.72;19.90;;;;;;;12.19;100.00;100092.84;8482081;27;20051;-84
2022/10/19 01:19:14;;;;;;;32.85;19.20;;;;;;;12.12;100.00;100092.41;8501277;27;20441;-84
2022/10/19 01:24:03;;;;;;;32.00;19.02;;;;;;;12.05;100.00;100092.00;8518516;27;20043;-85
2022/10/19 01:28:18;;;;;;;44.15;21.52;;;;;;;11.98;100.00;100086.13;8438777;28;20099;-85
2022/10/19 01:32:25;;;;;;;48.53;22.35;;;;;;;11.93;100.00;100099.75;8448552;28;20044;-84
2022/10/19 01:36:46;;;;;;;46.83;23.38;;;;;;;11.90;100.00;100094.91;8452001;28;20623;-83
2022/10/19 01:40:57;;;;;;;46.92;22.67;;;;;;;11.91;100.00;100099.22;8454524;28;20047;-83
2022/10/19 01:45:00;;;;;;;35.60;20.30;;;;;;;11.92;100.00;100098.13;8431225;28;20058;-85
2022/10/19 01:49:38;;;;;;;39.13;19.33;;;;;;;11.95;100.00;100113.78;8453916;28;20105;-85
2022/10/19 01:53:42;;;;;;;37.65;20.35;;;;;;;11.95;100.00;100097.53;8385991;28;20056;-84
2022/10/19 01:57:48;;;;;;;34.92;19.75;;;;;;;11.92;100.00;100087.31;8394894;28;20040;-83
2022/10/19 02:01:50;;;;;;;35.97;19.20;;;;;;;11.93;100.00;100080.78;8416486;28;20097;-83
2022/10/19 02:05:51;;;;;;;32.10;19.30;;;;;;;11.94;100.00;100077.00;8381325;28;20548;-83
2022/10/19 02:09:52;;;;;;;37.42;19.15;;;;;;;11.95;100.00;100075.09;8386855;28;20577;-83
2022/10/19 02:14:00;;;;;;;41.28;21.23;;;;;;;11.88;100.00;100070.03;8386897;28;20059;-83
2022/10/19 02:18:01;;;;;;;36.38;20.92;;;;;;;11.86;100.00;100077.66;8407273;28;20110;-84
2022/10/19 02:22:05;;;;;;;38.92;20.90;;;;;;;11.86;100.00;100077.66;8383298;28;20067;-84
2022/10/19 02:26:07;;;;;;;36.28;20.92;;;;;;;11.82;100.00;100076.63;8320712;28;20049;-84
2022/10/19 02:30:10;;;;;;;36.58;21.25;;;;;;;11.81;100.00;100064.19;8359235;28;20040;-83
2022/10/19 02:34:12;;;;;;;36.67;22.83;;;;;;;11.80;100.00;100076.09;8410725;28;20291;-83
2022/10/19 02:38:17;;;;;;;42.28;22.77;;;;;;;11.81;100.00;100069.59;8365963;28;20052;-84
2022/10/19 02:42:31;;;;;;;44.58;23.48;;;;;;;11.76;100.00;100078.59;8394381;28;20071;-83
2022/10/19 02:46:44;;;;;;;35.35;22.23;;;;;;;11.70;100.00;100076.22;8403504;28;20055;-84
2022/10/19 02:50:46;;;;;;;41.75;22.48;;;;;;;11.68;100.00;100068.41;8387368;28;20040;-83
2022/10/19 02:54:49;;;;;;;41.28;23.30;;;;;;;11.65;100.00;100073.59;8412210;27;20054;-83
2022/10/19 02:58:52;;;;;;;44.53;22.05;;;;;;;11.60;100.00;100062.84;8506901;27;20058;-83
2022/10/19 03:02:53;;;;;;;41.05;22.90;;;;;;;11.59;100.00;100066.63;8506637;27;20050;-83
2022/10/19 03:06:53;;;;;;;42.58;21.95;;;;;;;11.55;100.00;100065.63;8502140;27;20058;-84
2022/10/19 03:10:57;;;;;;;36.90;21.40;;;;;;;11.56;100.00;100067.22;8499913;27;20126;-84
2022/10/19 03:14:58;;;;;;;47.30;22.20;;;;;;;11.53;100.00;100062.38;8507959;27;20470;-83
2022/10/19 03:18:59;;;;;;;41.78;22.33;;;;;;;11.50;100.00;100054.88;8495070;27;20055;-83
2022/10/19 03:23:00;;;;;;;47.72;21.73;;;;;;;11.44;100.00;100057.63;8500933;27;20408;-83
2022/10/19 03:27:01;;;;;;;35.97;21.45;;;;;;;11.40;100.00;100053.91;8478943;27;20104;-84
2022/10/19 03:31:02;;;;;;;46.28;23.40;;;;;;;11.39;100.00;100052.31;8496925;27;20103;-84
2022/10/19 03:35:03;;;;;;;45.80;22.30;;;;;;;11.33;100.00;100069.69;8498120;27;20046;-83
2022/10/19 03:39:10;;;;;;;41.67;21.58;;;;;;;11.28;100.00;100061.63;8506990;27;20084;-83
2022/10/19 03:43:11;;;;;;;50.60;22.20;;;;;;;11.30;100.00;100048.66;8510652;27;20092;-83
2022/10/19 03:47:12;;;;;;;41.58;22.10;;;;;;;11.24;100.00;100055.22;8506871;27;20130;-84
2022/10/19 03:51:18;;;;;;;43.08;22.40;;;;;;;11.25;100.00;100054.13;8509693;27;20058;-84
2022/10/19 03:55:19;;;;;;;40.33;21.50;;;;;;;11.24;100.00;100047.09;8499938;27;20058;-83
2022/10/19 03:59:20;;;;;;;38.13;20.98;;;;;;;11.22;100.00;100046.56;8476009;27;20043;-83
2022/10/19 04:03:21;;;;;;;41.03;21.17;;;;;;;11.22;100.00;100051.97;8501440;27;20035;-83
2022/10/19 04:07:22;;;;;;;37.90;21.60;;;;;;;11.18;100.00;100061.75;8509497;27;20050;-83
2022/10/19 04:11:25;;;;;;;48.92;21.67;;;;;;;11.13;100.00;100058.31;8504579;27;20407;-84
2022/10/19 04:15:26;;;;;;;42.05;22.58;;;;;;;11.12;100.00;100049.41;8496719;27;20055;-83
2022/10/19 04:19:27;;;;;;;36.25;19.38;;;;;;;11.05;100.00;100040.06;8510259;27;20101;-83
2022/10/19 04:23:30;;;;;;;39.45;19.75;;;;;;;11.04;100.00;100041.94;8499744;27;20031;-82
2022/10/19 04:27:31;;;;;;;36.78;19.35;;;;;;;11.04;100.00;100049.25;8518753;27;20066;-82
2022/10/19 04:31:32;;;;;;;36.40;17.30;;;;;;;10.97;100.00;100046.88;8517169;27;20119;-83
2022/10/19 04:35:33;;;;;;;31.33;17.60;;;;;;;10.92;100.00;100052.34;8520067;27;20137;-82
2022/10/19 04:39:38;;;;;;;35.90;17.77;;;;;;;10.89;100.00;100064.53;8508128;27;20495;-82
2022/10/19 04:43:39;;;;;;;37.40;17.23;;;;;;;10.92;100.00;100057.75;8498425;27;20054;-82
2022/10/19 04:47:40;;;;;;;30.85;16.00;;;;;;;10.93;100.00;100064.78;8508760;27;20479;-82
2022/10/19 04:51:41;;;;;;;34.08;14.93;;;;;;;10.90;100.00;100059.94;8496306;27;20047;-82
2022/10/19 04:55:42;;;;;;;35.78;14.23;;;;;;;10.89;100.00;100063.75;8493880;27;20051;-82
2022/10/19 04:59:42;;;;;;;33.50;14.85;;;;;;;10.85;100.00;100062.69;8500294;27;20047;-83
2022/10/19 05:03:44;;;;;;;29.08;13.77;;;;;;;10.85;100.00;100057.28;8504063;27;20066;-83
2022/10/19 05:07:47;;;;;;;34.65;14.23;;;;;;;10.79;100.00;100053.03;8505858;27;20066;-83
2022/10/19 05:11:49;;;;;;;34.08;15.32;;;;;;;10.73;100.00;100056.91;8446829;27;20050;-83
2022/10/19 05:16:02;;;;;;;29.83;13.40;;;;;;;10.69;100.00;100047.72;8460853;27;20139;-85
2022/10/19 05:20:03;;;;;;;33.17;13.02;;;;;;;10.66;100.00;100048.31;8516995;27;20047;-83
2022/10/19 05:24:04;;;;;;;30.00;13.15;;;;;;;10.64;100.00;100048.59;8521153;27;20053;-84
2022/10/19 05:28:05;;;;;;;29.50;12.18;;;;;;;10.61;100.00;100057.28;8499845;27;20043;-84
2022/10/19 05:32:06;;;;;;;25.15;11.32;;;;;;;10.56;100.00;100055.44;8503223;27;20071;-83
2022/10/19 05:36:19;;;;;;;33.92;12.05;;;;;;;10.59;100.00;100071.06;8502079;27;20137;-83
2022/10/19 05:40:20;;;;;;;23.10;11.23;;;;;;;10.58;100.00;100069.44;8454274;27;20389;-83
2022/10/19 05:44:22;;;;;;;33.38;11.32;;;;;;;10.58;100.00;100085.66;8499857;27;20059;-83
2022/10/19 05:48:24;;;;;;;24.65;11.57;;;;;;;10.55;100.00;100080.84;8509251;27;20167;-83
2022/10/19 05:52:25;;;;;;;22.55;11.20;;;;;;;10.53;100.00;100082.19;8511469;27;20043;-86
2022/10/19 05:56:29;;;;;;;20.83;10.52;;;;;;;10.47;100.00;100084.13;8487012;27;20134;-83
2022/10/19 06:00:32;;;;;;;27.95;10.25;;;;;;;10.45;100.00;100089.03;8510338;27;20079;-83
2022/10/19 06:04:33;;;;;;;18.40;9.52;;;;;;;10.52;100.00;100091.41;8507751;27;20503;-83
2022/10/19 06:08:35;;;;;;;23.38;9.43;;;;;;;10.53;100.00;100093.00;8518830;27;20138;-84
2022/10/19 06:12:36;;;;;;;20.30;8.35;;;;;;;10.50;100.00;100099.78;8497816;27;20074;-83
2022/10/19 06:16:37;;;;;;;21.02;8.63;;;;;;;10.51;100.00;100101.41;8464574;27;20047;-83
2022/10/19 06:20:40;;;;;;;17.90;8.23;;;;;;;10.49;100.00;100102.75;8503757;27;20510;-82
2022/10/19 06:24:41;;;;;;;21.85;7.32;;;;;;;10.50;100.00;100099.78;8493562;27;20039;-89
2022/10/19 06:28:44;;;;;;;20.52;8.07;;;;;;;10.47;100.00;100097.63;8501390;27;20099;-84
2022/10/19 06:32:45;;;;;;;14.15;7.53;;;;;;;10.45;100.00;100107.13;8501621;27;20043;-83
2022/10/19 06:36:46;;;;;;;19.48;6.82;;;;;;;10.46;100.00;100103.34;8504697;27;20183;-83
2022/10/19 06:40:48;;;;;;;17.38;6.60;;;;;;;10.47;100.00;100100.34;8497864;27;20110;-83
2022/10/19 06:44:48;;;;;;;12.32;6.68;;;;;;;10.50;100.00;100099.78;8503568;27;20091;-83
2022/10/19 06:48:55;;;;;;;10.10;5.93;;;;;;;10.51;100.00;100106.81;8507637;27;20035;-83
2022/10/19 06:52:57;;;;;;;23.67;6.15;;;;;;;10.51;100.00;100106.81;8512771;27;20411;-83
2022/10/19 06:56:58;;;;;;;13.65;5.72;;;;;;;10.52;100.00;100113.78;8502777;27;20496;-82
2022/10/19 07:00:59;;;;;;;17.98;5.35;;;;;;;10.51;100.00;100112.22;8505979;27;20063;-82
2022/10/19 07:05:01;;;;;;;21.80;5.10;;;;;;;10.53;100.00;100115.41;8505374;27;20042;-83
2022/10/19 07:09:02;;;;;;;15.52;5.22;;;;;;;10.48;100.00;100123.56;8509501;27;20619;-84
2022/10/19 07:13:03;;;;;;;17.00;5.20;;;;;;;10.52;100.00;100135.41;8492144;27;20055;-83
2022/10/19 07:17:05;;;;;;;11.75;5.50;;;;;;;10.55;100.00;100134.84;8479800;27;20047;-83
2022/10/19 07:21:12;;;;;;;12.18;4.82;;;;;;;10.62;100.00;100133.72;8508290;27;20441;-83
2022/10/19 07:25:13;;;;;;;15.73;4.75;;;;;;;10.64;100.00;100147.72;8510738;27;20050;-85
2022/10/19 07:29:14;;;;;;;14.70;5.18;;;;;;;10.69;100.00;100145.78;8497769;27;20483;-82
2022/10/19 07:33:15;;;;;;;15.73;5.03;;;;;;;10.70;100.00;100141.19;8516704;27;20039;-84
2022/10/19 07:37:16;;;;;;;12.80;4.55;;;;;;;10.67;100.00;100139.88;8487724;27;20051;-85
2022/10/19 07:41:19;;;;;;;17.67;4.95;;;;;;;10.71;100.00;100137.41;8511348;27;20754;-83
2022/10/19 07:45:21;;;;;;;17.30;4.88;;;;;;;10.73;99.67;100151.47;8500418;27;20468;-85
2022/10/19 07:49:21;;;;;;;12.73;4.53;;;;;;;10.76;99.33;100145.47;8498649;27;20139;-83
2022/10/19 07:53:23;;;;;;;140.98;73.60;;;;;;;10.88;99.27;100154.00;8483069;27;20047;-83
2022/10/19 07:57:24;;;;;;;21.55;9.38;;;;;;;10.93;99.14;100162.06;8473977;27;20470;-83
2022/10/19 08:01:33;;;;;;;25.80;9.65;;;;;;;10.97;99.13;100163.09;8499080;27;20041;-83
2022/10/19 08:05:35;;;;;;;21.20;7.18;;;;;;;11.02;98.68;100165.75;8508755;27;20035;-83
2022/10/19 08:09:36;;;;;;;19.85;6.00;;;;;;;10.98;98.21;100164.72;8514563;27;20043;-83
2022/10/19 08:13:38;;;;;;;35.47;17.23;;;;;;;11.06;98.34;100161.38;8506931;27;20034;-83
2022/10/19 08:17:39;;;;;;;30.98;11.73;;;;;;;11.02;98.23;100149.53;8507991;27;20407;-83
2022/10/19 08:21:43;;;;;;;21.67;9.05;;;;;;;11.05;98.01;100154.34;8499294;27;20434;-84
2022/10/19 08:25:44;;;;;;;13.85;4.45;;;;;;;11.17;97.74;100162.88;8501981;27;20038;-82
2022/10/19 08:29:45;;;;;;;13.68;6.18;;;;;;;11.20;97.57;100167.75;8507944;27;20130;-83
2022/10/19 08:33:49;;;;;;;15.02;5.88;;;;;;;11.25;96.71;100164.97;8471116;27;20449;-83
2022/10/19 08:37:50;;;;;;;39.25;18.63;;;;;;;11.30;96.55;100173.03;8507985;27;20472;-84
2022/10/19 08:42:01;;;;;;;31.75;16.23;;;;;;;11.30;96.26;100156.81;8516915;27;20136;-85
2022/10/19 08:46:32;;;;;;;11.90;3.63;;;;;;;11.31;95.69;100158.44;8498235;27;20149;-84
2022/10/19 08:50:37;;;;;;;17.15;3.28;;;;;;;11.38;94.71;100158.06;8511029;27;20045;-81
2022/10/19 08:54:44;;;;;;;11.02;3.83;;;;;;;11.43;94.85;100166.91;8511956;27;20053;-82
2022/10/19 08:59:09;;;;;;;7.43;2.83;;;;;;;11.47;93.70;100161.75;8520007;27;20039;-81
2022/10/19 09:03:28;;;;;;;15.55;6.03;;;;;;;11.55;92.15;100163.00;8512907;27;20575;-81
2022/10/19 09:07:35;;;;;;;8.23;5.13;;;;;;;11.60;91.82;100157.53;8512315;27;20045;-80
2022/10/19 09:11:39;;;;;;;12.77;4.93;;;;;;;11.63;91.07;100154.25;8520500;27;20068;-83
2022/10/19 09:15:45;;;;;;;11.80;3.83;;;;;;;11.80;91.22;100170.81;8486995;27;20047;-81
2022/10/19 09:19:46;;;;;;;9.90;2.58;;;;;;;11.88;90.99;100167.47;8512499;27;20097;-84
2022/10/19 09:23:58;;;;;;;9.48;3.35;;;;;;;11.70;89.95;100170.94;8493410;27;20051;-81
2022/10/19 09:28:22;;;;;;;14.05;4.70;;;;;;;11.72;90.27;100179.56;8483588;27;20353;-81
2022/10/19 09:32:41;;;;;;;6.55;2.30;;;;;;;11.74;89.10;100190.94;8383830;28;20134;-83
2022/10/19 09:36:45;;;;;;;11.02;3.38;;;;;;;11.86;89.11;100185.91;8382074;28;20057;-80
2022/10/19 09:40:46;;;;;;;10.52;4.40;;;;;;;11.84;89.25;100193.53;8371798;28;20049;-82
2022/10/19 09:44:49;;;;;;;8.25;2.10;;;;;;;11.82;88.55;100190.28;8361978;28;20136;-82
2022/10/19 09:48:51;;;;;;;7.43;1.80;;;;;;;11.86;88.58;100180.50;8375196;28;20052;-83
2022/10/19 09:53:04;;;;;;;12.20;2.10;;;;;;;12.09;88.43;100190.47;8390746;28;20604;-82
2022/10/19 09:57:05;;;;;;;5.55;2.25;;;;;;;12.25;87.71;100193.78;8383151;28;20479;-80
2022/10/19 10:01:32;;;;;;;5.70;1.55;;;;;;;12.30;87.08;100201.00;8385685;28;20114;-83
2022/10/19 10:05:40;;;;;;;3.88;1.73;;;;;;;12.35;86.90;100203.66;8374116;28;20139;-82
2022/10/19 10:09:42;;;;;;;9.27;1.83;;;;;;;12.42;86.34;100204.09;8466306;27;20647;-83
2022/10/19 10:13:49;;;;;;;8.82;1.90;;;;;;;12.49;85.82;100199.09;8488201;27;20042;-84
2022/10/19 10:17:50;;;;;;;11.75;4.32;;;;;;;12.58;85.70;100197.34;8500659;27;20047;-81
2022/10/19 10:21:56;;;;;;;35.88;20.80;;;;;;;12.65;84.83;100197.75;8489381;27;20051;-83
2022/10/19 10:25:59;;;;;;;28.02;12.32;;;;;;;12.40;84.01;100209.00;8460510;27;20039;-83
2022/10/19 10:30:11;;;;;;;8.23;3.00;;;;;;;12.30;84.36;100203.72;8516589;27;20035;-82
2022/10/19 10:34:26;;;;;;;13.50;7.43;;;;;;;12.14;84.36;100209.34;8408672;28;20598;-82
2022/10/19 10:38:37;;;;;;;11.38;4.85;;;;;;;12.18;84.62;100201.44;8437351;28;20040;-82
2022/10/19 10:42:45;;;;;;;13.93;4.55;;;;;;;12.09;84.17;100206.72;8426778;28;20364;-82
2022/10/19 10:46:57;;;;;;;10.18;2.85;;;;;;;12.01;84.70;100204.66;8414494;28;20127;-82
2022/10/19 10:51:00;;;;;;;11.45;4.97;;;;;;;11.81;84.23;100191.38;8429539;28;20109;-80
2022/10/19 10:55:06;;;;;;;75.05;31.77;;;;;;;11.60;84.41;100192.69;8426447;28;20044;-80
2022/10/19 10:59:20;;;;;;;20.30;8.60;;;;;;;11.68;84.98;100205.59;8443571;28;20346;-83
2022/10/19 11:03:27;;;;;;;25.15;8.57;;;;;;;11.80;84.91;100197.88;8450546;27;20045;-86
2022/10/19 11:07:29;;;;;;;17.27;7.03;;;;;;;11.98;84.97;100199.84;8493902;27;20031;-79
2022/10/19 11:11:43;;;;;;;16.15;5.97;;;;;;;11.99;84.03;100198.75;8481754;27;20113;-80
2022/10/19 11:15:59;;;;;;;9.93;1.83;;;;;;;12.05;84.55;100194.88;8500326;27;20046;-80
2022/10/19 11:20:01;;;;;;;45.72;22.15;;;;;;;12.04;84.06;100198.66;8489822;27;20130;-79
2022/10/19 11:24:26;;;;;;;19.65;8.52;;;;;;;12.00;84.27;100197.63;8507526;27;20035;-79
2022/10/19 11:29:10;;;;;;;14.00;5.57;;;;;;;11.99;84.28;100195.22;8495138;27;20069;-80
2022/10/19 11:33:26;;;;;;;15.43;6.18;;;;;;;12.07;84.16;100187.25;8494563;27;20514;-79
2022/10/19 11:37:42;;;;;;;14.00;4.30;;;;;;;12.19;82.89;100195.75;8515272;27;20523;-80
2022/10/19 11:41:59;;;;;;;34.17;10.93;;;;;;;12.18;83.05;100194.13;8497481;27;20050;-80
2022/10/19 11:46:37;;;;;;;17.85;6.13;;;;;;;12.05;83.14;100200.28;8484750;27;20400;-80
2022/10/19 11:50:42;;;;;;;24.80;8.55;;;;;;;11.99;84.24;100201.44;8502797;27;20477;-80
2022/10/19 11:55:02;;;;;;;8.55;3.60;;;;;;;11.94;85.27;100209.63;8508954;27;20047;-81
2022/10/19 11:59:12;;;;;;;6.35;1.35;;;;;;;11.90;86.24;100203.16;8507103;27;20506;-82
2022/10/19 12:03:39;;;;;;;3.95;1.50;;;;;;;11.83;87.21;100197.31;8503428;27;20060;-81
2022/10/19 12:07:59;;;;;;;7.55;1.25;;;;;;;11.82;87.46;100206.53;8384055;28;20049;-81
2022/10/19 12:12:21;;;;;;;6.93;1.63;;;;;;;11.82;88.15;100211.94;8362204;28;20495;-80
2022/10/19 12:16:32;;;;;;;4.88;1.65;;;;;;;11.86;88.20;100204.84;8384318;28;20044;-81
2022/10/19 12:20:37;;;;;;;8.35;1.48;;;;;;;11.99;88.24;100212.28;8368569;28;20044;-85
2022/10/19 12:24:38;;;;;;;6.80;1.27;;;;;;;12.04;88.12;100209.50;8383169;28;20048;-80
2022/10/19 12:28:42;;;;;;;9.05;1.60;;;;;;;12.08;88.22;100210.53;8358592;28;20052;-81
2022/10/19 12:33:08;;;;;;;4.20;1.50;;;;;;;11.91;87.67;100210.19;8352910;28;20052;-84
2022/10/19 12:37:38;;;;;;;10.18;1.73;;;;;;;11.77;88.32;100198.47;8320533;28;20048;-80
2022/10/19 12:41:43;;;;;;;3.92;1.50;;;;;;;11.71;88.16;100205.00;8361112;28;20060;-81
2022/10/19 12:46:10;;;;;;;5.15;1.60;;;;;;;11.77;88.20;100198.47;8479048;27;20039;-81
2022/10/19 12:50:11;;;;;;;15.35;2.15;;;;;;;11.74;87.92;100204.47;8499953;27;20061;-81
2022/10/19 12:54:12;;;;;;;4.55;1.80;;;;;;;11.78;87.84;100205.50;8487996;27;20380;-82
2022/10/19 12:58:19;;;;;;;10.93;1.50;;;;;;;11.80;87.73;100208.72;8506030;27;20063;-88
2022/10/19 13:02:28;;;;;;;6.60;1.70;;;;;;;11.89;87.70;100201.59;8505453;27;20114;-82
2022/10/19 13:06:32;;;;;;;11.23;2.30;;;;;;;11.89;87.70;100196.16;8446408;27;20051;-82
2022/10/19 13:10:34;;;;;;;3.70;1.70;;;;;;;11.92;87.24;100195.56;8479077;27;20043;-83
2022/10/19 13:14:55;;;;;;;4.45;1.60;;;;;;;11.94;86.87;100198.81;8500225;27;20092;-81
2022/10/19 13:19:12;;;;;;;6.07;1.45;;;;;;;12.01;86.58;100193.81;8492779;27;20074;-81
2022/10/19 13:23:13;;;;;;;4.97;2.08;;;;;;;11.97;86.41;100194.69;8518359;27;20164;-82
2022/10/19 13:27:23;;;;;;;5.97;1.85;;;;;;;11.90;86.43;100208.59;8516827;27;20073;-81
2022/10/19 13:31:32;;;;;;;4.97;1.70;;;;;;;11.95;86.56;100211.22;8507254;27;20035;-81
2022/10/19 13:35:33;;;;;;;;;;;;;;;11.96;86.72;100202.00;8489217;27;20074;-82
2022/10/19 13:39:36;;;;;;;8.73;1.90;;;;;;;11.99;86.90;100201.44;8502862;27;19918;-84
2022/10/19 13:43:40;;;;;;;6.07;1.65;;;;;;;11.91;86.77;100204.78;8501871;27;20055;-81
2022/10/19 13:47:42;;;;;;;4.88;1.80;;;;;;;11.93;87.09;100191.78;8525552;27;20054;-82
2022/10/19 13:52:04;;;;;;;4.80;1.35;;;;;;;11.92;87.23;100195.56;8442537;28;20056;-82
2022/10/19 13:56:23;;;;;;;8.43;1.55;;;;;;;11.94;86.96;100187.97;8430905;28;20465;-81
2022/10/19 14:00:29;;;;;;;3.78;1.52;;;;;;;11.92;86.74;100195.56;8409267;28;20544;-82
2022/10/19 14:04:56;;;;;;;8.95;1.80;;;;;;;11.95;86.76;100191.50;8422922;28;20080;-81
2022/10/19 14:09:09;;;;;;;6.75;1.50;;;;;;;11.94;87.06;100193.41;8437052;28;20052;-82
2022/10/19 14:13:13;;;;;;;4.85;1.20;;;;;;;11.84;86.94;100196.25;8439639;28;20513;-82
2022/10/19 14:17:28;;;;;;;7.65;1.75;;;;;;;11.87;86.98;100187.53;8392016;28;20483;-82
2022/10/19 14:21:32;;;;;;;5.35;1.60;;;;;;;11.88;87.11;100199.97;8430010;27;20678;-81
2022/10/19 14:25:33;;;;;;;7.20;2.15;;;;;;;11.78;87.53;100190.09;8500053;27;20111;-81
2022/10/19 14:29:42;;;;;;;5.28;1.58;;;;;;;11.71;87.77;100186.88;8511141;27;20056;-82
2022/10/19 14:33:50;;;;;;;3.83;1.42;;;;;;;11.67;88.08;100193.16;8496243;27;20043;-82
2022/10/19 14:37:51;;;;;;;5.88;1.73;;;;;;;11.60;88.40;100187.28;8499697;27;20055;-82
2022/10/19 14:41:54;;;;;;;47.35;25.50;;;;;;;11.53;88.67;100192.22;8516061;27;20095;-82
2022/10/19 14:46:07;;;;;;;10.68;4.00;;;;;;;11.50;88.67;100192.81;8510426;27;20491;-82
2022/10/19 14:50:10;;;;;;;11.18;3.03;;;;;;;11.46;89.21;100197.19;8509724;27;20559;-82
2022/10/19 14:54:34;;;;;;;9.70;1.88;;;;;;;11.32;89.72;100192.47;8472607;27;20173;-82
2022/10/19 14:58:40;;;;;;;7.78;2.20;;;;;;;11.32;89.84;100197.88;8501931;27;20054;-81
2022/10/19 15:02:44;;;;;;;7.50;2.00;;;;;;;11.23;89.59;100194.19;8477817;27;20039;-81
2022/10/19 15:06:46;;;;;;;5.40;2.20;;;;;;;11.17;89.88;100194.53;8492010;27;20047;-82
2022/10/19 15:10:47;;;;;;;7.57;1.77;;;;;;;11.15;89.80;100194.84;8492199;27;20046;-82
2022/10/19 15:14:48;;;;;;;4.40;1.45;;;;;;;11.05;89.81;100197.59;8515780;27;20046;-82
2022/10/19 15:18:50;;;;;;;2.78;1.50;;;;;;;10.94;89.62;100206.94;8411199;28;20055;-81
2022/10/19 15:22:51;;;;;;;4.93;1.63;;;;;;;10.89;89.93;100204.28;8439141;28;20570;-82
2022/10/19 15:26:53;;;;;;;3.80;1.80;;;;;;;10.95;89.04;100208.50;8434230;28;20101;-82
2022/10/19 15:31:05;;;;;;;6.07;1.80;;;;;;;10.89;89.26;100210.47;8425165;28;20040;-81
2022/10/19 15:35:09;;;;;;;7.53;1.48;;;;;;;10.84;89.53;100215.13;8434098;28;20058;-82
2022/10/19 15:39:18;;;;;;;4.63;1.80;;;;;;;10.82;89.65;100214.59;8436057;28;20197;-82
2022/10/19 15:43:34;;;;;;;8.43;1.55;;;;;;;10.75;90.16;100219.50;8417305;28;20055;-82
2022/10/19 15:47:35;;;;;;;4.43;1.85;;;;;;;10.73;90.04;100210.91;8435601;28;20054;-82
2022/10/19 15:51:37;;;;;;;8.65;2.28;;;;;;;10.73;90.38;100221.69;8432182;28;20785;-82
2022/10/19 15:55:38;;;;;;;3.72;2.00;;;;;;;10.74;90.41;100217.88;8450580;28;20070;-82
2022/10/19 15:59:39;;;;;;;5.97;1.77;;;;;;;10.69;90.57;100221.44;8429479;28;20063;-82
2022/10/19 16:03:40;;;;;;;4.43;1.92;;;;;;;10.71;90.78;100223.88;8444825;28;20437;-82
2022/10/19 16:07:41;;;;;;;5.35;2.20;;;;;;;10.68;91.17;100219.03;8410557;28;20063;-82
2022/10/19 16:11:42;;;;;;;2.97;1.88;;;;;;;10.63;91.20;100227.97;8433541;28;20090;-81
2022/10/19 16:15:43;;;;;;;5.32;2.47;;;;;;;10.50;91.45;100234.81;8426971;28;20526;-81
2022/10/19 16:19:45;;;;;;;5.18;2.60;;;;;;;10.42;91.73;100232.69;8445301;28;20109;-81
2022/10/19 16:23:46;;;;;;;4.03;2.67;;;;;;;10.39;91.95;100237.88;8472234;28;20039;-81
2022/10/19 16:27:47;;;;;;;6.68;2.45;;;;;;;10.38;92.23;100247.84;8450975;27;20050;-81
2022/10/19 16:31:47;;;;;;;5.68;3.05;;;;;;;10.39;92.15;100244.06;8448092;28;20055;-82
2022/10/19 16:35:51;;;;;;;6.05;3.10;;;;;;;10.39;92.24;100244.06;8451979;28;20055;-82
2022/10/19 16:39:52;;;;;;;8.13;3.05;;;;;;;10.35;92.26;100248.44;8446789;28;20100;-82
2022/10/19 16:43:55;;;;;;;8.20;3.40;;;;;;;10.28;92.23;100253.31;8469321;28;20442;-82
2022/10/19 16:47:56;;;;;;;5.85;2.70;;;;;;;10.18;92.65;100258.78;8464244;28;20516;-81
2022/10/19 16:51:59;;;;;;;14.60;2.95;;;;;;;10.08;93.04;100269.59;8473985;27;20369;-82
2022/10/19 16:56:04;;;;;;;5.88;3.05;;;;;;;9.98;93.11;100269.63;8473717;27;20057;-81
2022/10/19 17:00:08;;;;;;;7.75;3.00;;;;;;;9.87;93.55;100262.66;8464760;27;20055;-82
2022/10/19 17:04:10;;;;;;;6.55;3.08;;;;;;;9.71;93.72;100265.41;8469933;27;20047;-82
2022/10/19 17:08:11;;;;;;;7.68;3.08;;;;;;;9.57;94.22;100277.84;8465106;28;20075;-81
2022/10/19 17:12:13;;;;;;;11.13;2.67;;;;;;;9.43;94.46;100274.13;8468939;27;20066;-82
2022/10/19 17:16:15;;;;;;;6.38;2.72;;;;;;;9.31;94.49;100281.66;8465364;27;20142;-81
2022/10/19 17:20:16;;;;;;;7.43;2.78;;;;;;;9.17;94.48;100286.00;8474178;27;20047;-82
2022/10/19 17:24:18;;;;;;;9.32;3.00;;;;;;;9.05;94.53;100288.16;8468344;27;20416;-81
2022/10/19 17:28:19;;;;;;;10.70;3.13;;;;;;;8.90;94.63;100292.47;8469642;27;20051;-81
2022/10/19 17:32:20;;;;;;;5.88;2.92;;;;;;;8.82;94.45;100295.72;8473018;27;20412;-81
2022/10/19 17:36:26;;;;;;;9.45;3.33;;;;;;;8.68;94.20;100305.38;8469169;27;20047;-81
2022/10/19 17:40:28;;;;;;;8.63;2.70;;;;;;;8.57;94.27;100314.50;8481058;27;20055;-81
2022/10/19 17:44:30;;;;;;;7.03;2.80;;;;;;;8.47;94.26;100319.88;8464608;27;20047;-81
2022/10/19 17:48:32;;;;;;;7.40;2.72;;;;;;;8.37;94.12;100319.84;8485249;27;20131;-81
2022/10/19 17:52:33;;;;;;;8.13;3.10;;;;;;;8.27;94.03;100325.16;8471562;27;20051;-81
2022/10/19 17:56:35;;;;;;;17.40;2.97;;;;;;;8.14;93.75;100325.66;8475161;27;20408;-81
2022/10/19 18:00:38;;;;;;;10.57;2.70;;;;;;;8.04;93.58;100335.28;8464973;28;20051;-81
2022/10/19 18:04:40;;;;;;;7.32;2.67;;;;;;;7.96;93.50;100341.16;8427819;28;20176;-81
2022/10/19 18:08:44;;;;;;;4.82;3.20;;;;;;;7.87;93.72;100341.94;8469091;27;20273;-81
2022/10/19 18:12:45;;;;;;;7.28;3.10;;;;;;;7.80;93.50;100336.78;8439649;27;20055;-81
2022/10/19 18:16:46;;;;;;;20.15;3.70;;;;;;;7.71;93.12;100338.34;8476458;27;20142;-80
2022/10/19 18:20:48;;;;;;;9.68;4.35;;;;;;;7.67;93.21;100342.59;8514458;27;20041;-81
2022/10/19 18:24:49;;;;;;;14.60;5.10;;;;;;;7.66;93.12;100332.94;8497804;27;20484;-81
2022/10/19 18:28:52;;;;;;;11.27;6.20;;;;;;;7.71;93.38;100332.97;8461772;27;20484;-81
2022/10/19 18:32:53;;;;;;;13.43;5.35;;;;;;;7.67;93.29;100341.81;8506205;27;20642;-80
2022/10/19 18:36:54;;;;;;;21.55;6.95;;;;;;;7.58;93.49;100344.16;8496084;27;20123;-80
2022/10/19 18:41:03;;;;;;;17.95;7.82;;;;;;;7.52;93.71;100350.56;8512263;27;20499;-80
2022/10/19 18:45:05;;;;;;;25.42;9.70;;;;;;;7.44;93.77;100348.38;8511268;27;20062;-80